createdAt,value
2022-07-29T00:01:50.703Z,15.83
2022-07-29T00:04:17.916Z,15.87
2022-07-29T00:06:45.022Z,15.90
2022-07-29T00:09:11.862Z,15.94
2022-07-29T00:11:38.601Z,15.97
2022-07-29T00:14:05.806Z,15.99
2022-07-29T00:16:32.727Z,16.04
2022-07-29T00:19:02.089Z,16.08
2022-07-29T00:21:29.271Z,16.13
2022-07-29T00:23:56.177Z,16.18
2022-07-29T00:26:22.874Z,16.22
2022-07-29T00:28:49.728Z,16.27
2022-07-29T00:31:16.682Z,16.30
2022-07-29T00:33:43.430Z,16.34
2022-07-29T00:36:10.235Z,16.35
2022-07-29T00:38:37.170Z,16.40
2022-07-29T00:41:03.919Z,16.40
2022-07-29T00:43:31.515Z,16.40
2022-07-29T00:45:58.342Z,16.42
2022-07-29T00:48:24.997Z,16.43
2022-07-29T00:50:52.051Z,16.43
2022-07-29T00:53:20.239Z,16.39
2022-07-29T00:55:46.980Z,16.39
2022-07-29T00:58:14.977Z,16.37
2022-07-29T01:00:43.129Z,16.36
2022-07-29T01:03:12.408Z,16.37
2022-07-29T01:05:51.102Z,16.36
2022-07-29T01:08:19.804Z,16.36
2022-07-29T01:10:47.819Z,16.37
2022-07-29T01:13:16.773Z,16.39
2022-07-29T01:15:52.500Z,16.37
2022-07-29T01:18:29.665Z,16.39
2022-07-29T01:21:31.381Z,16.39
2022-07-29T01:24:26.038Z,16.36
2022-07-29T01:27:05.099Z,16.37
2022-07-29T01:29:48.240Z,16.39
2022-07-29T01:32:28.962Z,16.39
2022-07-29T01:35:08.165Z,16.40
2022-07-29T01:37:50.148Z,16.42
2022-07-29T01:40:58.375Z,16.43
2022-07-29T01:43:32.630Z,16.44
2022-07-29T01:46:04.862Z,16.45
2022-07-29T01:49:01.411Z,16.46
2022-07-29T01:51:42.449Z,16.46
2022-07-29T01:54:15.940Z,16.45
2022-07-29T01:56:46.333Z,16.44
2022-07-29T01:59:13.295Z,16.43
2022-07-29T02:01:44.165Z,16.44
2022-07-29T02:04:29.112Z,16.43
2022-07-29T02:07:02.904Z,16.40
2022-07-29T02:09:31.312Z,16.42
2022-07-29T02:12:00.397Z,16.41
2022-07-29T02:14:29.847Z,16.42
2022-07-29T02:16:59.353Z,16.42
2022-07-29T02:19:28.287Z,16.44
2022-07-29T02:21:57.824Z,16.47
2022-07-29T02:24:26.336Z,16.48
2022-07-29T02:26:56.078Z,16.49
2022-07-29T02:29:24.929Z,16.50
2022-07-29T02:31:53.772Z,16.47
2022-07-29T02:34:21.944Z,16.47
2022-07-29T02:36:50.800Z,16.48
2022-07-29T02:39:19.491Z,16.50
2022-07-29T02:42:01.361Z,16.50
2022-07-29T02:44:34.248Z,16.53
2022-07-29T02:47:22.072Z,16.53
2022-07-29T02:50:00.789Z,16.52
2022-07-29T02:52:33.640Z,16.49
2022-07-29T02:55:19.550Z,16.49
2022-07-29T02:57:56.130Z,16.51
2022-07-29T03:00:28.138Z,16.52
2022-07-29T03:02:58.960Z,16.53
2022-07-29T03:05:26.945Z,16.52
2022-07-29T03:08:00.003Z,16.50
2022-07-29T03:10:27.905Z,16.50
2022-07-29T03:12:56.852Z,16.52
2022-07-29T03:15:24.942Z,16.54
2022-07-29T03:17:53.663Z,16.57
2022-07-29T03:20:20.828Z,16.56
2022-07-29T03:22:50.583Z,16.56
2022-07-29T03:25:19.694Z,16.57
2022-07-29T03:27:47.776Z,16.58
2022-07-29T03:30:21.609Z,16.58
2022-07-29T03:32:49.535Z,16.60
2022-07-29T03:35:20.423Z,16.60
2022-07-29T03:37:47.504Z,16.59
2022-07-29T03:40:20.840Z,16.58
2022-07-29T03:42:49.534Z,16.54
2022-07-29T03:45:19.841Z,16.52
2022-07-29T03:48:00.562Z,16.50
2022-07-29T03:50:29.970Z,16.47
2022-07-29T03:52:56.921Z,16.47
2022-07-29T03:55:24.665Z,16.46
2022-07-29T03:57:52.228Z,16.46
2022-07-29T04:00:20.591Z,16.46
2022-07-29T04:02:49.974Z,16.43
2022-07-29T04:05:17.341Z,16.40
2022-07-29T04:07:49.001Z,16.36
2022-07-29T04:10:17.023Z,16.31
2022-07-29T04:12:44.295Z,16.27
2022-07-29T04:15:11.702Z,16.24
2022-07-29T04:17:39.039Z,16.27
2022-07-29T04:20:06.435Z,16.25
2022-07-29T04:22:33.280Z,16.25
2022-07-29T04:25:03.901Z,16.27
2022-07-29T04:27:31.362Z,16.27
2022-07-29T04:29:58.073Z,16.25
2022-07-29T04:32:25.817Z,16.23
2022-07-29T04:34:52.767Z,16.25
2022-07-29T04:37:19.670Z,16.23
2022-07-29T04:39:46.534Z,16.19
2022-07-29T04:42:13.410Z,16.19
2022-07-29T04:44:42.839Z,16.20
2022-07-29T04:47:10.502Z,16.18
2022-07-29T04:49:40.655Z,16.14
2022-07-29T04:52:07.817Z,16.13
2022-07-29T04:54:34.693Z,16.10
2022-07-29T04:57:01.541Z,16.08
2022-07-29T04:59:28.855Z,16.09
2022-07-29T05:01:55.779Z,16.12
2022-07-29T05:04:22.713Z,16.13
2022-07-29T05:06:49.841Z,16.15
2022-07-29T05:09:16.581Z,16.15
2022-07-29T05:11:43.520Z,16.16
2022-07-29T05:14:10.257Z,16.17
2022-07-29T05:16:37.044Z,16.20
2022-07-29T05:19:04.030Z,16.23
2022-07-29T05:21:30.690Z,16.23
2022-07-29T05:23:57.697Z,16.27
2022-07-29T05:26:24.466Z,16.30
2022-07-29T05:28:51.216Z,16.31
2022-07-29T05:31:18.105Z,16.31
2022-07-29T05:33:44.946Z,16.34
2022-07-29T05:36:11.681Z,16.34
2022-07-29T05:38:38.670Z,16.36
2022-07-29T05:41:06.365Z,16.37
2022-07-29T05:43:33.592Z,16.40
2022-07-29T05:46:00.622Z,16.43
2022-07-29T05:48:27.895Z,16.45
2022-07-29T05:50:55.693Z,16.45
2022-07-29T05:53:23.023Z,16.45
2022-07-29T05:55:50.421Z,16.43
2022-07-29T05:58:17.381Z,16.46
2022-07-29T06:00:44.407Z,16.46
2022-07-29T06:03:11.318Z,16.48
2022-07-29T06:05:38.032Z,16.49
2022-07-29T06:08:08.397Z,16.51
2022-07-29T06:10:38.794Z,16.53
2022-07-29T06:13:05.713Z,16.54
2022-07-29T06:15:32.758Z,16.55
2022-07-29T06:18:01.217Z,16.55
2022-07-29T06:20:33.004Z,16.56
2022-07-29T06:23:00.761Z,16.57
2022-07-29T06:29:11.977Z,16.61
2022-07-29T06:31:39.644Z,16.65
2022-07-29T06:34:06.882Z,16.66
2022-07-29T06:37:33.568Z,16.67
2022-07-29T06:41:01.115Z,16.73
2022-07-29T06:43:30.265Z,16.81
2022-07-29T06:45:57.443Z,16.81
2022-07-29T06:48:24.201Z,16.81
2022-07-29T06:50:51.402Z,16.82
2022-07-29T06:53:18.136Z,16.87
2022-07-29T06:55:45.052Z,16.89
2022-07-29T06:58:12.298Z,16.90
2022-07-29T07:00:39.081Z,16.92
2022-07-29T07:03:05.800Z,16.97
2022-07-29T07:05:32.865Z,17.03
2022-07-29T07:07:59.576Z,17.08
2022-07-29T07:10:26.335Z,17.10
2022-07-29T07:12:53.377Z,17.15
2022-07-29T07:15:22.934Z,17.19
2022-07-29T07:18:07.263Z,17.23
2022-07-29T07:20:35.081Z,17.29
2022-07-29T07:23:01.998Z,17.32
2022-07-29T07:25:29.424Z,17.35
2022-07-29T07:27:56.119Z,17.38
2022-07-29T07:31:22.753Z,17.43
2022-07-29T07:34:49.246Z,17.53
2022-07-29T07:38:16.075Z,17.65
2022-07-29T07:41:42.532Z,17.79
2022-07-29T07:44:14.165Z,17.84
2022-07-29T07:46:42.615Z,17.87
2022-07-29T07:50:10.319Z,17.93
2022-07-29T07:57:31.361Z,18.08
2022-07-29T07:59:58.059Z,18.21
2022-07-29T08:02:24.933Z,18.29
2022-07-29T08:09:51.394Z,18.45
2022-07-29T08:12:19.569Z,18.52
2022-07-29T08:14:46.348Z,18.52
2022-07-29T08:17:13.178Z,18.54
2022-07-29T08:19:39.912Z,18.59
2022-07-29T08:22:06.668Z,18.65
2022-07-29T08:24:47.442Z,18.71
2022-07-29T08:28:13.932Z,18.71
2022-07-29T08:35:35.612Z,18.78
2022-07-29T08:39:03.012Z,18.79
2022-07-29T08:42:05.959Z,18.81
2022-07-29T08:44:32.929Z,18.87
2022-07-29T08:47:59.486Z,18.88
2022-07-29T08:55:10.627Z,19.04
2022-07-29T08:58:38.457Z,19.19
2022-07-29T09:05:01.681Z,19.23
2022-07-29T09:07:34.495Z,19.18
2022-07-29T09:10:02.429Z,19.16
2022-07-29T09:12:33.679Z,19.16
2022-07-29T09:15:38.932Z,19.21
2022-07-29T09:18:05.670Z,19.35
2022-07-29T09:20:51.210Z,19.40
2022-07-29T09:23:23.420Z,19.44
2022-07-29T09:25:51.560Z,19.41
2022-07-29T09:28:19.146Z,19.47
2022-07-29T09:30:54.213Z,19.54
2022-07-29T09:33:23.052Z,19.56
2022-07-29T09:36:10.118Z,19.61
2022-07-29T09:38:38.447Z,19.73
2022-07-29T09:41:06.837Z,19.99
2022-07-29T09:43:35.348Z,20.20
2022-07-29T09:47:14.238Z,20.40
2022-07-29T09:49:59.459Z,20.74
2022-07-29T09:52:30.698Z,20.86
2022-07-29T09:59:13.522Z,21.28
2022-07-29T10:01:40.348Z,21.27
2022-07-29T10:04:07.101Z,21.15
2022-07-29T10:06:34.180Z,21.06
2022-07-29T10:09:13.273Z,20.91
2022-07-29T10:11:49.360Z,20.83
2022-07-29T10:14:23.610Z,20.77
2022-07-29T10:16:50.707Z,20.76
2022-07-29T10:19:18.391Z,20.79
2022-07-29T10:21:45.929Z,20.76
2022-07-29T10:24:15.293Z,20.73
2022-07-29T10:26:43.195Z,20.66
2022-07-29T10:29:10.640Z,20.64
2022-07-29T10:32:02.123Z,20.59
2022-07-29T10:34:57.941Z,20.57
2022-07-29T10:38:06.625Z,20.64
2022-07-29T10:41:19.409Z,20.75
2022-07-29T10:43:51.413Z,20.80
2022-07-29T10:46:19.560Z,20.81
2022-07-29T10:49:24.385Z,20.69
2022-07-29T10:51:51.945Z,20.56
2022-07-29T10:54:19.666Z,20.42
2022-07-29T10:56:47.159Z,20.30
2022-07-29T10:59:21.393Z,20.21
2022-07-29T11:02:02.453Z,20.21
2022-07-29T11:04:47.117Z,20.22
2022-07-29T11:07:17.650Z,20.25
2022-07-29T11:09:46.601Z,20.25
2022-07-29T11:12:38.800Z,20.22
2022-07-29T11:15:07.969Z,20.14
2022-07-29T11:17:54.201Z,20.10
2022-07-29T11:20:39.424Z,20.05
2022-07-29T11:23:33.844Z,19.98
2022-07-29T11:26:26.218Z,20.00
2022-07-29T11:29:25.660Z,20.08
2022-07-29T11:31:58.263Z,20.19
2022-07-29T11:34:31.150Z,20.31
2022-07-29T11:37:12.353Z,20.39
2022-07-29T11:39:47.615Z,20.42
2022-07-29T11:42:28.242Z,20.42
2022-07-29T11:45:06.647Z,20.45
2022-07-29T11:47:50.595Z,20.56
2022-07-29T11:50:27.724Z,20.62
2022-07-29T11:52:54.912Z,20.68
2022-07-29T11:55:32.534Z,20.66
2022-07-29T11:58:03.842Z,20.61
2022-07-29T12:00:38.646Z,20.53
2022-07-29T12:03:08.066Z,20.40
2022-07-29T12:06:34.605Z,20.32
2022-07-29T12:10:01.260Z,20.20
2022-07-29T12:13:37.126Z,20.10
2022-07-29T12:17:04.547Z,19.96
2022-07-29T12:19:43.478Z,19.88
2022-07-29T12:23:12.008Z,19.89
2022-07-29T12:26:36.338Z,20.06
2022-07-29T12:29:04.508Z,20.26
2022-07-29T12:32:38.041Z,20.36
2022-07-29T12:36:10.381Z,20.56
2022-07-29T12:38:47.828Z,20.92
2022-07-29T12:41:15.207Z,21.27
2022-07-29T12:43:54.571Z,21.55
2022-07-29T12:46:21.680Z,21.81
2022-07-29T12:49:52.922Z,22.09
2022-07-29T12:53:31.498Z,22.07
2022-07-29T13:00:20.918Z,22.40
2022-07-29T13:03:57.755Z,22.74
2022-07-29T13:06:52.241Z,22.52
2022-07-29T13:14:10.527Z,21.85
2022-07-29T13:16:58.313Z,21.79
2022-07-29T13:20:27.663Z,21.92
2022-07-29T13:23:54.136Z,22.07
2022-07-29T13:27:21.465Z,22.17
2022-07-29T13:34:31.057Z,22.67
2022-07-29T13:36:57.827Z,22.85
2022-07-29T13:39:24.505Z,22.92
2022-07-29T13:42:51.278Z,22.96
2022-07-29T13:46:17.831Z,23.06
2022-07-29T13:49:44.531Z,23.32
2022-07-29T13:56:53.918Z,24.03
2022-07-29T14:00:20.394Z,24.30
2022-07-29T14:07:39.745Z,24.10
2022-07-29T14:11:06.264Z,23.79
2022-07-29T14:14:32.846Z,23.77
2022-07-29T14:17:59.371Z,23.70
2022-07-29T14:25:18.380Z,23.53
2022-07-29T14:28:47.746Z,23.38
2022-07-29T14:32:14.649Z,23.36
2022-07-29T14:35:41.667Z,23.35
2022-07-29T14:43:02.487Z,23.20
2022-07-29T14:46:29.032Z,23.21
2022-07-29T14:49:55.707Z,23.39
2022-07-29T14:53:22.351Z,23.50
2022-07-29T14:56:49.032Z,23.32
2022-07-29T15:00:15.669Z,23.15
2022-07-29T15:03:42.299Z,23.10
2022-07-29T15:07:08.917Z,23.09
2022-07-29T15:10:35.675Z,23.30
2022-07-29T15:17:45.195Z,23.83
2022-07-29T15:21:12.281Z,23.99
2022-07-29T15:24:38.843Z,24.18
2022-07-29T15:28:05.341Z,24.27
2022-07-29T16:07:12.601Z,23.97
2022-07-29T16:10:40.880Z,23.87
2022-07-29T16:14:07.489Z,23.62
2022-07-29T16:17:35.719Z,23.37
2022-07-29T16:21:02.488Z,23.25
2022-07-29T16:28:12.076Z,23.08
2022-07-29T16:31:38.573Z,22.99
2022-07-29T16:35:05.347Z,22.83
2022-07-29T16:38:31.924Z,22.77
2022-07-29T16:45:52.244Z,22.57
2022-07-29T16:49:19.532Z,22.52
2022-07-29T16:56:27.986Z,22.73
2022-07-29T16:59:54.457Z,22.81
2022-07-29T17:03:21.082Z,22.90
2022-07-29T17:06:47.582Z,22.86
2022-07-29T17:14:07.846Z,22.80
2022-07-29T17:17:38.932Z,22.65
2022-07-29T17:24:03.273Z,22.57
2022-07-29T17:26:31.044Z,22.56
2022-07-29T17:28:57.734Z,22.43
2022-07-29T17:32:24.304Z,22.31
2022-07-29T17:34:51.169Z,22.22
2022-07-29T17:37:18.006Z,22.15
2022-07-29T17:39:45.069Z,22.11
2022-07-29T17:42:14.374Z,22.01
2022-07-29T17:45:49.589Z,21.96
2022-07-29T17:52:59.097Z,21.80
2022-07-29T17:56:25.609Z,21.66
2022-07-29T18:02:44.691Z,21.64
2022-07-29T18:05:11.437Z,21.65
2022-07-29T18:07:58.204Z,21.64
2022-07-29T18:11:24.713Z,21.58
2022-07-29T18:13:51.723Z,21.57
2022-07-29T18:21:02.272Z,21.57
2022-07-29T18:24:28.844Z,21.56
2022-07-29T18:26:56.647Z,21.53
2022-07-29T18:29:23.776Z,21.45
2022-07-29T18:31:50.778Z,21.37
2022-07-29T18:34:17.808Z,21.30
2022-07-29T18:36:45.985Z,21.25
2022-07-29T18:39:13.209Z,21.18
2022-07-29T18:41:50.163Z,21.15
2022-07-29T18:51:54.109Z,21.09
2022-07-29T18:54:20.958Z,21.02
2022-07-29T19:01:40.212Z,20.88
2022-07-29T19:04:07.115Z,20.81
2022-07-29T19:06:34.055Z,20.77
2022-07-29T19:10:00.815Z,20.72
2022-07-29T19:13:27.333Z,20.66
2022-07-29T19:16:54.098Z,20.62
2022-07-29T19:23:04.079Z,20.58
2022-07-29T19:25:31.123Z,20.57
2022-07-29T19:28:02.402Z,20.53
2022-07-29T19:30:29.314Z,20.51
2022-07-29T19:33:55.827Z,20.47
2022-07-29T19:36:23.231Z,20.42
2022-07-29T19:38:50.144Z,20.39
2022-07-29T19:42:16.933Z,20.35
2022-07-29T19:44:47.655Z,20.31
2022-07-29T19:51:05.763Z,20.25
2022-07-29T19:53:33.237Z,20.22
2022-07-29T19:57:00.027Z,20.17
2022-07-29T20:00:27.234Z,20.13
2022-07-29T20:02:54.165Z,20.08
2022-07-29T20:05:29.006Z,20.04
2022-07-29T20:07:56.006Z,20.02
2022-07-29T20:10:22.853Z,20.01
2022-07-29T20:12:49.764Z,19.98
2022-07-29T20:15:20.541Z,19.95
2022-07-29T20:17:47.329Z,19.90
2022-07-29T20:20:14.144Z,19.86
2022-07-29T20:22:43.316Z,19.83
2022-07-29T20:25:11.930Z,19.80
2022-07-29T20:27:40.734Z,19.80
2022-07-29T20:30:08.524Z,19.78
2022-07-29T20:32:35.631Z,19.77
2022-07-29T20:35:02.410Z,19.76
2022-07-29T20:37:29.362Z,19.76
2022-07-29T20:39:56.110Z,19.74
2022-07-29T20:42:22.986Z,19.74
2022-07-29T20:44:52.375Z,19.74
2022-07-29T20:47:20.988Z,19.74
2022-07-29T20:49:47.817Z,19.72
2022-07-29T20:52:14.663Z,19.72
2022-07-29T20:54:41.440Z,19.71
2022-07-29T20:58:08.400Z,19.71
2022-07-29T21:01:35.007Z,19.72
2022-07-29T21:08:54.326Z,19.73
2022-07-29T21:12:21.032Z,19.73
2022-07-29T21:19:30.471Z,19.65
2022-07-29T21:22:56.950Z,19.64
2022-07-29T21:26:23.602Z,19.66
2022-07-29T21:29:50.067Z,19.67
2022-07-29T21:33:16.810Z,19.67
2022-07-29T21:36:48.138Z,19.69
2022-07-29T21:40:15.288Z,19.69
2022-07-29T21:43:42.073Z,19.65
2022-07-29T21:47:08.779Z,19.62
2022-07-29T21:49:35.620Z,19.60
2022-07-29T21:52:04.781Z,19.58
2022-07-29T21:54:31.725Z,19.56
2022-07-29T21:56:58.836Z,19.54
2022-07-29T21:59:27.666Z,19.52
2022-07-29T22:01:54.885Z,19.50
2022-07-29T22:04:21.830Z,19.47
2022-07-29T22:06:49.245Z,19.45
2022-07-29T22:09:16.205Z,19.41
2022-07-29T22:11:43.900Z,19.41
2022-07-29T22:14:12.367Z,19.39
2022-07-29T22:16:39.387Z,19.38
2022-07-29T22:19:06.196Z,19.37
2022-07-29T22:21:33.093Z,19.33
2022-07-29T22:24:01.352Z,19.31
2022-07-29T22:26:28.090Z,19.29
2022-07-29T22:28:54.885Z,19.27
2022-07-29T22:31:21.955Z,19.26
2022-07-29T22:33:52.208Z,19.25
2022-07-29T22:36:19.369Z,19.23
2022-07-29T22:38:50.251Z,19.23
2022-07-29T22:41:18.614Z,19.20
2022-07-29T22:43:45.509Z,19.20
2022-07-29T22:46:12.637Z,19.19
2022-07-29T22:48:39.531Z,19.18
2022-07-29T22:51:07.285Z,19.19
2022-07-29T22:53:34.287Z,19.17
2022-07-29T22:56:00.967Z,19.17
2022-07-29T22:58:28.935Z,19.17
2022-07-29T23:00:55.921Z,19.15
2022-07-29T23:03:23.082Z,19.11
2022-07-29T23:05:51.657Z,19.10
2022-07-29T23:08:19.835Z,19.11
2022-07-29T23:10:46.815Z,19.12
2022-07-29T23:13:14.218Z,19.12
2022-07-29T23:15:41.583Z,19.13
2022-07-29T23:18:08.388Z,19.13
2022-07-29T23:20:35.836Z,19.15
2022-07-29T23:23:02.849Z,19.15
2022-07-29T23:25:29.658Z,19.15
2022-07-29T23:27:56.694Z,19.16
2022-07-29T23:30:24.026Z,19.16
2022-07-29T23:32:50.910Z,19.16
2022-07-29T23:35:17.778Z,19.15
2022-07-29T23:37:44.717Z,19.15
2022-07-29T23:40:14.500Z,19.13
2022-07-29T23:42:42.397Z,19.11
2022-07-29T23:45:10.615Z,19.08
2022-07-29T23:47:37.415Z,19.05
2022-07-29T23:50:05.590Z,19.03
2022-07-29T23:52:32.456Z,19.03
2022-07-29T23:55:37.957Z,19.02
2022-07-29T23:57:46.394Z,18.98
